createdAt,value
2018-05-15T00:00:16.909Z,77.00
2018-05-15T00:02:44.382Z,77.30
2018-05-15T00:05:11.834Z,76.70
2018-05-15T00:07:39.300Z,76.50
2018-05-15T00:10:06.746Z,76.20
2018-05-15T00:12:34.214Z,75.90
2018-05-15T00:15:01.668Z,75.70
2018-05-15T00:17:29.999Z,74.70
2018-05-15T00:19:57.458Z,74.70
2018-05-15T00:22:24.909Z,74.60
2018-05-15T00:24:52.370Z,74.30
2018-05-15T00:27:19.821Z,73.70
2018-05-15T00:29:48.054Z,73.50
2018-05-15T00:32:15.505Z,73.50
2018-05-15T00:34:42.975Z,73.60
2018-05-15T00:37:10.440Z,73.40
2018-05-15T00:39:37.901Z,72.20
2018-05-15T00:42:05.357Z,73.10
2018-05-15T00:44:33.582Z,72.40
2018-05-15T00:47:01.058Z,72.30
2018-05-15T00:49:28.521Z,70.80
2018-05-15T00:51:55.989Z,71.50
2018-05-15T00:54:23.459Z,71.10
2018-05-15T00:56:50.911Z,71.20
2018-05-15T00:59:18.374Z,70.00
2018-05-15T01:01:45.830Z,69.60
2018-05-15T01:04:14.062Z,69.50
2018-05-15T01:06:41.510Z,69.50
2018-05-15T01:09:08.982Z,69.70
2018-05-15T01:11:36.438Z,69.30
2018-05-15T01:14:03.907Z,69.00
2018-05-15T01:16:31.366Z,69.20
2018-05-15T01:18:59.593Z,68.70
2018-05-15T01:21:27.046Z,68.60
2018-05-15T01:23:54.522Z,69.60
2018-05-15T01:26:22.161Z,70.20
2018-05-15T01:28:50.381Z,69.70
2018-05-15T01:31:17.835Z,69.70
2018-05-15T01:33:45.327Z,70.50
2018-05-15T01:36:12.782Z,69.10
2018-05-15T01:38:40.242Z,70.40
2018-05-15T01:41:07.697Z,70.20
2018-05-15T01:43:35.926Z,69.20
2018-05-15T01:46:03.386Z,69.20
2018-05-15T01:48:30.911Z,69.30
2018-05-15T01:50:59.127Z,68.30
2018-05-15T01:53:26.693Z,68.10
2018-05-15T01:55:54.898Z,69.20
2018-05-15T01:58:22.362Z,69.10
2018-05-15T02:00:49.835Z,68.60
2018-05-15T02:03:17.297Z,68.60
2018-05-15T02:05:44.752Z,68.40
2018-05-15T02:08:12.979Z,68.60
2018-05-15T02:10:40.441Z,68.60
2018-05-15T02:13:07.919Z,69.20
2018-05-15T02:15:35.370Z,68.70
2018-05-15T02:18:02.848Z,68.10
2018-05-15T02:20:31.126Z,68.90
2018-05-15T02:22:58.701Z,68.80
2018-05-15T02:25:26.157Z,67.80
2018-05-15T02:27:53.611Z,68.40
2018-05-15T02:30:21.081Z,68.40
2018-05-15T02:32:49.294Z,68.80
2018-05-15T02:35:16.761Z,68.70
2018-05-15T02:37:44.215Z,68.80
2018-05-15T02:40:11.678Z,67.90
2018-05-15T02:42:39.140Z,67.50
2018-05-15T02:45:07.371Z,67.30
2018-05-15T02:47:34.822Z,67.00
2018-05-15T02:50:02.358Z,67.00
2018-05-15T02:52:30.582Z,66.40
2018-05-15T02:54:58.050Z,66.40
2018-05-15T02:57:25.504Z,66.50
2018-05-15T02:59:52.966Z,66.80
2018-05-15T03:02:20.423Z,67.60
2018-05-15T03:04:48.662Z,66.60
2018-05-15T03:07:16.122Z,66.60
2018-05-15T03:09:43.594Z,66.90
2018-05-15T03:12:11.043Z,67.00
2018-05-15T03:14:38.507Z,66.80
2018-05-15T03:17:05.957Z,66.20
2018-05-15T03:19:33.427Z,66.00
2018-05-15T03:22:00.883Z,67.10
2018-05-15T03:24:29.113Z,67.10
2018-05-15T03:26:56.566Z,67.10
2018-05-15T03:29:24.036Z,67.20
2018-05-15T03:31:51.490Z,66.90
2018-05-15T03:34:18.990Z,66.80
2018-05-15T03:36:46.455Z,66.40
2018-05-15T03:39:13.934Z,67.50
2018-05-15T03:41:41.386Z,67.50
2018-05-15T03:44:08.866Z,66.70
2018-05-15T03:46:36.311Z,66.00
2018-05-15T03:49:03.785Z,66.00
2018-05-15T03:51:31.246Z,66.00
2018-05-15T03:53:58.714Z,66.80
2018-05-15T03:56:26.166Z,66.00
2018-05-15T03:58:54.400Z,66.00
2018-05-15T04:01:33.841Z,66.00
2018-05-15T04:04:13.125Z,66.00
2018-05-15T04:09:45.869Z,66.00
2018-05-15T04:12:14.247Z,66.10
2018-05-15T04:14:41.710Z,66.00
2018-05-15T04:17:09.174Z,66.60
2018-05-15T04:19:36.646Z,66.30
2018-05-15T04:22:04.098Z,66.80
2018-05-15T04:24:31.562Z,66.90
2018-05-15T04:26:59.019Z,67.60
2018-05-15T04:29:26.526Z,67.00
2018-05-15T04:31:54.115Z,66.50
2018-05-15T04:34:21.583Z,67.20
2018-05-15T04:36:49.041Z,66.30
2018-05-15T04:39:16.518Z,67.20
2018-05-15T04:41:43.955Z,66.40
2018-05-15T04:44:11.421Z,65.60
2018-05-15T04:46:38.882Z,65.50
2018-05-15T04:49:06.346Z,64.40
2018-05-15T04:51:33.807Z,64.20
2018-05-15T04:54:01.270Z,64.50
2018-05-15T04:56:28.722Z,64.60
2018-05-15T04:58:56.946Z,66.00
2018-05-15T05:01:24.402Z,65.90
2018-05-15T05:03:51.870Z,65.10
2018-05-15T05:06:19.331Z,65.50
2018-05-15T05:08:46.785Z,64.70
2018-05-15T05:11:14.258Z,64.00
2018-05-15T05:13:42.479Z,66.30
2018-05-15T05:16:09.950Z,66.30
2018-05-15T05:18:37.405Z,65.20
2018-05-15T05:21:04.971Z,66.00
2018-05-15T05:23:32.334Z,64.60
2018-05-15T05:25:59.806Z,65.20
2018-05-15T05:28:27.257Z,63.50
2018-05-15T05:30:54.726Z,65.30
2018-05-15T05:33:22.209Z,64.10
2018-05-15T05:35:50.410Z,64.00
2018-05-15T05:38:17.863Z,64.00
2018-05-15T05:40:45.336Z,64.10
2018-05-15T05:43:12.787Z,64.00
2018-05-15T05:45:41.018Z,64.00
2018-05-15T05:48:08.482Z,64.00
2018-05-15T05:50:35.964Z,63.80
2018-05-15T05:53:03.430Z,64.20
2018-05-15T05:55:30.893Z,64.10
2018-05-15T05:57:58.353Z,63.60
2018-05-15T06:00:25.812Z,62.40
2018-05-15T06:02:53.266Z,64.00
2018-05-15T06:05:20.743Z,64.20
2018-05-15T06:07:48.206Z,65.00
2018-05-15T06:10:15.679Z,63.60
2018-05-15T06:12:43.126Z,65.30
2018-05-15T06:15:11.360Z,63.60
2018-05-15T06:17:38.801Z,63.50
2018-05-15T06:20:06.273Z,64.30
2018-05-15T06:22:33.759Z,65.10
2018-05-15T06:25:01.414Z,65.30
2018-05-15T06:27:28.877Z,65.20
2018-05-15T06:29:57.086Z,64.90
2018-05-15T06:32:24.588Z,64.90
2018-05-15T06:34:52.024Z,64.90
2018-05-15T06:37:19.499Z,64.50
2018-05-15T06:39:46.962Z,66.70
2018-05-15T06:42:14.443Z,64.30
2018-05-15T06:44:41.900Z,64.60
2018-05-15T06:47:09.360Z,63.80
2018-05-15T06:49:36.817Z,64.00
2018-05-15T06:52:04.288Z,63.30
2018-05-15T06:54:31.750Z,62.20
2018-05-15T06:56:59.206Z,63.20
2018-05-15T06:59:27.438Z,62.20
2018-05-15T07:01:54.941Z,62.20
2018-05-15T07:04:22.365Z,63.10
2018-05-15T07:06:49.821Z,61.60
2018-05-15T07:09:17.294Z,61.70
2018-05-15T07:11:44.755Z,61.60
2018-05-15T07:14:12.212Z,61.10
2018-05-15T07:16:40.451Z,61.90
2018-05-15T07:19:07.914Z,61.90
2018-05-15T07:21:35.381Z,61.70
2018-05-15T07:24:02.846Z,62.10
2018-05-15T07:26:30.313Z,62.30
2018-05-15T07:28:57.801Z,60.70
2018-05-15T07:31:25.274Z,60.70
2018-05-15T07:33:52.738Z,61.70
2018-05-15T07:36:20.249Z,62.00
2018-05-15T07:38:48.454Z,60.80
2018-05-15T07:41:15.989Z,60.80
2018-05-15T07:43:44.210Z,60.70
2018-05-15T07:46:11.684Z,61.20
2018-05-15T07:48:39.145Z,60.20
2018-05-15T07:51:06.608Z,59.60
2018-05-15T07:53:34.111Z,59.30
2018-05-15T07:56:02.297Z,57.10
2018-05-15T07:58:29.758Z,57.00
2018-05-15T08:00:57.265Z,57.70
2018-05-15T08:03:24.717Z,60.80
2018-05-15T08:05:52.178Z,58.30
2018-05-15T08:08:19.638Z,60.00
2018-05-15T08:10:47.111Z,57.90
2018-05-15T08:13:14.574Z,58.30
2018-05-15T08:15:42.038Z,58.90
2018-05-15T08:18:09.486Z,58.50
2018-05-15T08:20:36.969Z,58.70
2018-05-15T08:23:04.426Z,58.10
2018-05-15T08:25:31.894Z,57.10
2018-05-15T08:27:59.345Z,57.40
2018-05-15T08:30:27.584Z,57.90
2018-05-15T08:32:55.034Z,57.90
2018-05-15T08:35:22.498Z,57.20
2018-05-15T08:37:49.958Z,57.30
2018-05-15T08:40:17.431Z,59.30
2018-05-15T08:42:45.977Z,59.50
2018-05-15T08:45:13.491Z,58.90
2018-05-15T08:47:40.907Z,56.80
2018-05-15T08:50:08.373Z,57.60
2018-05-15T08:52:35.833Z,55.30
2018-05-15T08:55:03.392Z,55.40
2018-05-15T08:57:30.849Z,57.30
2018-05-15T08:59:58.314Z,59.00
2018-05-15T09:02:25.765Z,56.50
2018-05-15T09:04:54.000Z,56.00
2018-05-15T09:07:21.462Z,55.90
2018-05-15T09:09:48.926Z,55.70
2018-05-15T09:12:16.380Z,56.60
2018-05-15T09:14:43.872Z,57.40
2018-05-15T09:17:11.335Z,56.50
2018-05-15T09:19:38.791Z,56.70
2018-05-15T09:22:06.258Z,57.70
2018-05-15T09:24:33.714Z,56.20
2018-05-15T09:27:01.379Z,56.00
2018-05-15T09:29:29.593Z,54.90
2018-05-15T09:31:57.058Z,54.90
2018-05-15T09:34:24.738Z,53.40
2018-05-15T09:36:52.314Z,51.70
2018-05-15T09:39:19.767Z,50.60
2018-05-15T09:41:47.233Z,52.20
2018-05-15T09:44:14.693Z,49.90
2018-05-15T09:46:42.203Z,50.80
2018-05-15T09:49:09.658Z,51.70
2018-05-15T09:51:37.127Z,51.20
2018-05-15T09:54:04.582Z,48.40
2018-05-15T09:56:32.053Z,47.70
2018-05-15T09:58:59.502Z,47.80
2018-05-15T10:01:26.970Z,47.10
2018-05-15T10:03:55.186Z,46.80
2018-05-15T10:06:22.809Z,46.80
2018-05-15T10:08:51.009Z,46.20
2018-05-15T10:11:19.250Z,47.30
2018-05-15T10:13:46.706Z,47.30
2018-05-15T10:16:14.174Z,49.10
2018-05-15T10:18:41.625Z,48.30
2018-05-15T10:21:09.093Z,49.40
2018-05-15T10:23:36.577Z,48.00
2018-05-15T10:26:04.042Z,47.80
2018-05-15T10:28:31.500Z,45.80
2018-05-15T10:30:58.966Z,47.10
2018-05-15T10:33:26.417Z,46.60
2018-05-15T10:35:54.650Z,43.10
2018-05-15T10:38:22.105Z,43.10
2018-05-15T10:40:49.577Z,43.30
2018-05-15T10:43:17.034Z,45.60
2018-05-15T10:45:44.502Z,44.60
2018-05-15T10:48:11.963Z,43.50
2018-05-15T10:50:39.441Z,44.50
2018-05-15T10:53:06.882Z,44.10
2018-05-15T10:55:35.118Z,42.90
2018-05-15T10:58:02.570Z,42.90
2018-05-15T11:00:30.039Z,41.10
2018-05-15T11:02:57.593Z,42.50
2018-05-15T11:05:25.055Z,41.10
2018-05-15T11:07:52.517Z,41.10
2018-05-15T11:10:21.725Z,37.40
2018-05-15T11:12:50.025Z,38.50
2018-05-15T11:15:17.430Z,38.30
2018-05-15T11:17:44.892Z,38.20
2018-05-15T11:20:24.150Z,39.60
2018-05-15T11:23:03.562Z,38.20
2018-05-15T11:25:31.058Z,38.30
2018-05-15T11:27:58.513Z,37.70
2018-05-15T11:30:26.064Z,37.70
2018-05-15T11:32:53.433Z,37.20
2018-05-15T11:35:21.653Z,36.80
2018-05-15T11:37:49.117Z,36.80
2018-05-15T11:40:16.575Z,38.90
2018-05-15T11:42:44.038Z,37.20
2018-05-15T11:45:11.499Z,35.90
2018-05-15T11:47:39.812Z,38.40
2018-05-15T11:50:07.777Z,38.40
2018-05-15T11:52:35.143Z,38.40
2018-05-15T11:55:02.113Z,37.30
2018-05-15T11:57:29.580Z,37.80
2018-05-15T11:59:57.050Z,37.50
2018-05-15T12:02:24.569Z,39.00
2018-05-15T12:04:52.722Z,37.80
2018-05-15T12:07:20.190Z,37.60
2018-05-15T12:09:47.642Z,37.60
2018-05-15T12:12:15.106Z,36.30
2018-05-15T12:14:42.561Z,36.90
2018-05-15T12:17:10.825Z,39.50
2018-05-15T12:19:38.286Z,39.50
2018-05-15T12:22:05.745Z,39.00
2018-05-15T12:24:33.285Z,37.70
2018-05-15T12:27:00.670Z,36.80
2018-05-15T12:29:28.131Z,37.20
2018-05-15T12:31:55.594Z,36.20
2018-05-15T12:34:23.065Z,39.00
2018-05-15T12:36:50.542Z,38.50
2018-05-15T12:39:17.998Z,38.00
2018-05-15T12:41:45.730Z,39.90
2018-05-15T12:44:13.155Z,40.30
2018-05-15T12:46:40.786Z,40.40
2018-05-15T12:49:08.173Z,41.50
2018-05-15T12:51:36.614Z,43.40
2018-05-15T12:54:04.110Z,44.70
2018-05-15T12:56:31.534Z,43.00
2018-05-15T12:58:58.998Z,45.00
2018-05-15T13:01:26.464Z,42.80
2018-05-15T13:03:53.921Z,43.30
2018-05-15T13:06:21.374Z,42.80
2018-05-15T13:08:48.840Z,42.40
2018-05-15T13:11:16.294Z,40.70
2018-05-15T13:13:44.522Z,42.20
2018-05-15T13:16:11.992Z,42.20
2018-05-15T13:18:40.115Z,39.20
2018-05-15T13:21:08.246Z,38.20
2018-05-15T13:23:35.710Z,38.20
2018-05-15T13:26:03.171Z,40.40
2018-05-15T13:28:30.636Z,41.00
2018-05-15T13:30:58.094Z,40.80
2018-05-15T13:33:26.339Z,42.30
2018-05-15T13:35:53.786Z,42.30
2018-05-15T13:38:21.258Z,42.00
2018-05-15T13:40:48.718Z,42.90
2018-05-15T13:43:16.185Z,43.50
2018-05-15T13:45:43.642Z,43.30
2018-05-15T13:48:11.112Z,45.40
2018-05-15T13:50:38.729Z,46.20
2018-05-15T13:53:06.067Z,46.10
2018-05-15T13:55:33.537Z,45.40
2018-05-15T13:58:00.994Z,45.40
2018-05-15T14:00:28.457Z,46.10
2018-05-15T14:02:55.910Z,43.90
2018-05-15T14:05:24.152Z,45.10
2018-05-15T14:07:51.614Z,45.10
2018-05-15T14:10:19.082Z,44.30
2018-05-15T14:12:46.546Z,42.30
2018-05-15T14:15:14.071Z,41.90
2018-05-15T14:17:42.282Z,43.10
2018-05-15T14:20:09.750Z,43.10
2018-05-15T14:22:37.197Z,40.30
2018-05-15T14:25:05.429Z,44.00
2018-05-15T14:27:32.894Z,43.90
2018-05-15T14:30:00.359Z,44.70
2018-05-15T14:32:27.834Z,41.40
2018-05-15T14:34:55.310Z,40.60
2018-05-15T14:37:22.762Z,39.70
2018-05-15T14:39:50.250Z,40.80
2018-05-15T14:42:29.708Z,40.60
2018-05-15T14:44:57.174Z,40.50
2018-05-15T14:47:24.630Z,40.60
2018-05-15T14:49:52.165Z,41.10
2018-05-15T14:52:19.650Z,41.70
2018-05-15T14:54:47.145Z,40.20
2018-05-15T14:57:14.683Z,41.50
2018-05-15T14:59:42.069Z,39.80
2018-05-15T15:02:09.535Z,42.90
2018-05-15T15:04:36.992Z,41.30
2018-05-15T15:07:04.454Z,41.20
2018-05-15T15:09:32.674Z,41.90
2018-05-15T15:12:00.137Z,41.90
2018-05-15T15:14:27.846Z,41.70
2018-05-15T15:16:56.827Z,43.40
2018-05-15T15:19:24.368Z,43.40
2018-05-15T15:21:51.826Z,42.30
2018-05-15T15:24:19.282Z,45.00
2018-05-15T15:26:47.509Z,43.00
2018-05-15T15:29:15.049Z,43.00
2018-05-15T15:31:42.445Z,41.80
2018-05-15T15:34:09.919Z,43.00
2018-05-15T15:36:37.370Z,42.90
2018-05-15T15:39:05.518Z,42.20
2018-05-15T15:41:33.046Z,42.70
2018-05-15T15:44:00.510Z,42.00
2018-05-15T15:46:27.973Z,40.90
2018-05-15T15:48:55.430Z,41.50
2018-05-15T15:51:22.890Z,41.70
2018-05-15T15:53:50.345Z,42.40
2018-05-15T15:56:18.578Z,40.50
2018-05-15T15:58:46.042Z,40.50
2018-05-15T16:01:13.508Z,39.30
2018-05-15T16:03:40.961Z,40.00
2018-05-15T16:06:08.504Z,41.00
2018-05-15T16:08:35.886Z,41.40
2018-05-15T16:11:03.358Z,39.90
2018-05-15T16:13:30.814Z,40.30
2018-05-15T16:15:59.033Z,41.40
2018-05-15T16:18:26.530Z,41.40
2018-05-15T16:20:53.990Z,40.70
2018-05-15T16:23:21.453Z,41.70
2018-05-15T16:25:48.905Z,40.90
2018-05-15T16:28:16.466Z,40.10
2018-05-15T16:30:43.926Z,40.30
2018-05-15T16:33:12.275Z,42.40
2018-05-15T16:35:39.734Z,42.40
2018-05-15T16:38:07.203Z,41.80
2018-05-15T16:40:34.761Z,39.70
2018-05-15T16:43:02.234Z,40.90
2018-05-15T16:45:29.685Z,41.40
2018-05-15T16:47:57.165Z,42.20
2018-05-15T16:50:24.614Z,42.80
2018-05-15T16:52:52.082Z,40.90
2018-05-15T16:55:19.581Z,41.40
2018-05-15T16:57:47.049Z,41.60
2018-05-15T17:00:14.518Z,41.50
2018-05-15T17:02:42.021Z,41.90
2018-05-15T17:05:10.246Z,42.60
2018-05-15T17:07:37.715Z,41.90
2018-05-15T17:10:05.166Z,43.40
2018-05-15T17:12:33.394Z,40.90
2018-05-15T17:15:00.845Z,40.90
2018-05-15T17:17:28.314Z,41.30
2018-05-15T17:19:55.775Z,43.70
2018-05-15T17:22:23.233Z,42.80
2018-05-15T17:24:50.689Z,43.40
2018-05-15T17:27:18.922Z,44.00
2018-05-15T17:29:46.375Z,43.90
2018-05-15T17:32:13.845Z,43.30
2018-05-15T17:34:42.057Z,45.00
2018-05-15T17:37:09.521Z,45.10
2018-05-15T17:39:36.974Z,44.40
2018-05-15T17:42:04.446Z,46.50
2018-05-15T17:44:31.906Z,44.90
2018-05-15T17:46:59.357Z,46.20
2018-05-15T17:49:26.828Z,45.90
2018-05-15T17:51:55.045Z,46.90
2018-05-15T17:54:22.598Z,46.90
2018-05-15T17:56:50.851Z,46.80
2018-05-15T17:59:18.385Z,46.80
2018-05-15T18:01:45.813Z,46.80
2018-05-15T18:04:13.286Z,46.60
2018-05-15T18:06:40.753Z,46.70
2018-05-15T18:09:08.233Z,46.20
2018-05-15T18:11:35.679Z,46.80
2018-05-15T18:14:03.910Z,46.60
2018-05-15T18:16:31.368Z,46.50
2018-05-15T18:18:58.835Z,47.40
2018-05-15T18:21:26.331Z,47.20
2018-05-15T18:23:53.786Z,47.20
2018-05-15T18:26:21.348Z,46.40
2018-05-15T18:28:48.906Z,48.50
2018-05-15T18:31:17.117Z,48.10
2018-05-15T18:33:44.664Z,48.10
2018-05-15T18:36:12.874Z,48.90
2018-05-15T18:38:40.359Z,48.90
2018-05-15T18:41:07.824Z,48.80
2018-05-15T18:43:35.290Z,50.50
2018-05-15T18:46:02.738Z,50.50
2018-05-15T18:48:30.210Z,51.70
2018-05-15T18:51:03.556Z,51.10
2018-05-15T18:53:31.713Z,50.10
2018-05-15T18:55:59.171Z,50.10
2018-05-15T18:58:26.634Z,49.50
2018-05-15T19:00:54.094Z,49.50
2018-05-15T19:03:21.560Z,49.10
2018-05-15T19:05:49.013Z,49.60
2018-05-15T19:08:16.479Z,48.90
2018-05-15T19:10:44.714Z,49.10
2018-05-15T19:13:12.173Z,49.10
2018-05-15T19:15:39.658Z,49.20
2018-05-15T19:18:07.126Z,50.10
2018-05-15T19:20:34.577Z,50.80
2018-05-15T19:23:02.053Z,50.80
2018-05-15T19:25:29.513Z,51.20
2018-05-15T19:27:57.118Z,52.20
2018-05-15T19:30:24.690Z,53.00
2018-05-15T19:32:57.821Z,53.70
2018-05-15T19:35:29.982Z,53.30
2018-05-15T19:37:58.214Z,53.30
2018-05-15T19:40:29.518Z,53.20
2018-05-15T19:42:56.985Z,53.20
2018-05-15T19:45:24.486Z,53.10
2018-05-15T19:47:52.734Z,54.00
2018-05-15T19:50:20.197Z,54.00
2018-05-15T19:52:47.722Z,54.40
2018-05-15T19:55:15.933Z,55.40
2018-05-15T19:57:43.415Z,55.30
2018-05-15T20:00:10.866Z,55.70
2018-05-15T20:02:38.318Z,56.60
2018-05-15T20:05:06.547Z,58.70
2018-05-15T20:07:34.002Z,58.70
2018-05-15T20:10:01.471Z,59.80
2018-05-15T20:12:28.931Z,59.80
2018-05-15T20:14:56.403Z,61.10
2018-05-15T20:17:23.858Z,59.60
2018-05-15T20:19:52.086Z,57.90
2018-05-15T20:22:19.537Z,57.90
2018-05-15T20:24:47.001Z,59.30
2018-05-15T20:27:14.454Z,60.40
2018-05-15T20:29:42.686Z,60.80
2018-05-15T20:32:10.138Z,60.70
2018-05-15T20:34:37.606Z,60.60
2018-05-15T20:37:05.059Z,60.60
2018-05-15T20:39:32.556Z,61.20
2018-05-15T20:42:00.073Z,60.40
2018-05-15T20:44:27.472Z,61.70
2018-05-15T20:46:54.922Z,61.20
2018-05-15T20:49:23.157Z,61.10
2018-05-15T20:51:50.605Z,61.10
2018-05-15T20:54:18.073Z,60.70
2018-05-15T20:56:45.521Z,61.00
2018-05-15T20:59:13.760Z,61.80
2018-05-15T21:01:41.205Z,61.70
2018-05-15T21:04:08.674Z,61.70
2018-05-15T21:06:36.126Z,61.30
2018-05-15T21:09:03.595Z,60.00
2018-05-15T21:11:31.038Z,59.40
2018-05-15T21:13:59.270Z,59.60
2018-05-15T21:16:26.717Z,59.60
2018-05-15T21:18:54.945Z,59.00
2018-05-15T21:21:22.398Z,59.00
2018-05-15T21:23:49.865Z,58.50
2018-05-15T21:26:17.358Z,58.50
2018-05-15T21:28:44.822Z,58.10
2018-05-15T21:31:12.281Z,58.10
2018-05-15T21:33:39.849Z,58.10
2018-05-15T21:36:07.311Z,57.40
2018-05-15T21:38:34.774Z,56.80
2018-05-15T21:41:02.226Z,57.10
2018-05-15T21:43:29.698Z,57.10
2018-05-15T21:45:57.150Z,57.30
2018-05-15T21:48:25.466Z,60.60
2018-05-15T21:50:52.914Z,60.50
2018-05-15T21:53:20.378Z,60.60
2018-05-15T21:55:48.606Z,62.10
2018-05-15T21:58:16.065Z,62.00
2018-05-15T22:00:43.533Z,62.80
2018-05-15T22:03:11.006Z,63.30
2018-05-15T22:05:38.489Z,63.30
2018-05-15T22:08:05.943Z,64.10
2018-05-15T22:10:33.409Z,64.20
2018-05-15T22:13:12.779Z,64.70
2018-05-15T22:15:52.206Z,65.20
2018-05-15T22:18:31.633Z,65.30
2018-05-15T22:21:10.927Z,65.10
2018-05-15T22:23:37.901Z,64.80
2018-05-15T22:26:05.355Z,65.20
2018-05-15T22:28:32.831Z,64.90
2018-05-15T22:31:00.277Z,64.70
2018-05-15T22:33:27.806Z,65.60
2018-05-15T22:35:55.202Z,66.10
2018-05-15T22:38:22.658Z,66.20
2018-05-15T22:40:50.115Z,66.10
2018-05-15T22:43:18.347Z,65.90
2018-05-15T22:45:45.802Z,65.90
2018-05-15T22:48:13.350Z,66.40
2018-05-15T22:50:40.806Z,66.80
2018-05-15T22:53:09.076Z,67.00
2018-05-15T22:55:37.485Z,66.90
2018-05-15T22:58:05.789Z,66.80
2018-05-15T23:00:33.290Z,66.80
2018-05-15T23:03:00.752Z,67.30
2018-05-15T23:05:28.206Z,67.40
2018-05-15T23:07:55.723Z,67.20
2018-05-15T23:10:23.956Z,67.90
2018-05-15T23:12:51.426Z,67.50
2018-05-15T23:15:18.922Z,68.10
2018-05-15T23:17:46.386Z,67.30
2018-05-15T23:20:13.849Z,66.90
2018-05-15T23:22:42.277Z,67.30
2018-05-15T23:25:09.733Z,67.70
2018-05-15T23:27:37.310Z,68.20
2018-05-15T23:30:04.769Z,68.10
2018-05-15T23:32:32.226Z,68.60
2018-05-15T23:34:59.689Z,69.20
2018-05-15T23:37:27.146Z,69.40
2018-05-15T23:39:54.608Z,69.50
2018-05-15T23:42:22.062Z,69.50
2018-05-15T23:44:50.289Z,69.30
2018-05-15T23:47:17.747Z,69.30
2018-05-15T23:49:45.205Z,70.00
2018-05-15T23:52:12.662Z,70.40
2018-05-15T23:54:40.126Z,70.20
2018-05-15T23:57:08.349Z,71.70
2018-05-15T23:59:35.810Z,71.70
